Time;durP1;ratioP1;P1;durP2;ratioP2;P2;SDS_P1;SDS_P2;PMS_P1;PMS_P2;Temp;Humidity;BMP_temperature;BMP_pressure;BME280_temperature;BME280_humidity;BME280_pressure;Samples;Min_cycle;Max_cycle;Signal;HPM_P1;HPM_P2
2021/09/25 00:00:34;;;;;;;1.15;0.90;;;17.60;83.70;;;;;;5113505;28;20024;-76
2021/09/25 00:03:01;;;;;;;1.60;0.85;;;17.60;83.70;;;;;;5113663;28;20114;-77
2021/09/25 00:05:28;;;;;;;0.85;0.85;;;17.60;83.70;;;;;;5095236;28;20020;-76
2021/09/25 00:07:54;;;;;;;1.23;1.02;;;17.60;83.70;;;;;;5095152;28;20112;-76
2021/09/25 00:10:20;;;;;;;0.70;0.70;;;17.60;83.70;;;;;;5113718;28;20022;-76
2021/09/25 00:12:47;;;;;;;0.80;0.80;;;17.60;83.70;;;;;;5094700;28;20035;-76
2021/09/25 00:15:13;;;;;;;0.93;0.80;;;17.60;83.80;;;;;;5113458;28;20043;-75
2021/09/25 00:17:38;;;;;;;1.02;0.70;;;17.60;83.80;;;;;;5095169;28;20368;-76
2021/09/25 00:20:05;;;;;;;1.17;0.90;;;17.60;83.80;;;;;;5113484;28;20026;-75
2021/09/25 00:22:30;;;;;;;1.25;1.13;;;17.60;83.80;;;;;;5113451;28;20484;-75
2021/09/25 00:24:56;;;;;;;0.88;0.85;;;17.60;83.80;;;;;;5113305;28;20065;-75
2021/09/25 00:27:22;;;;;;;0.98;0.90;;;17.60;83.80;;;;;;5112948;28;20024;-75
2021/09/25 00:29:47;;;;;;;0.65;0.63;;;17.60;83.70;;;;;;5113330;28;20429;-76
2021/09/25 00:32:13;;;;;;;0.80;0.80;;;17.60;83.80;;;;;;5113236;28;20028;-76
2021/09/25 00:34:38;;;;;;;0.85;0.82;;;17.60;83.90;;;;;;5113336;28;20026;-75
2021/09/25 00:37:04;;;;;;;0.95;0.70;;;17.60;83.90;;;;;;5113233;28;20016;-75
2021/09/25 00:39:29;;;;;;;1.75;0.90;;;17.60;83.90;;;;;;5113335;28;20070;-75
2021/09/25 00:41:55;;;;;;;0.60;0.60;;;17.60;83.90;;;;;;5112765;28;20358;-75
2021/09/25 00:44:21;;;;;;;0.73;0.70;;;17.60;83.90;;;;;;5113053;28;20442;-76
2021/09/25 00:46:47;;;;;;;0.85;0.82;;;17.60;83.80;;;;;;5113132;28;20039;-75
2021/09/25 00:49:20;;;;;;;0.70;0.70;;;17.60;83.80;;;;;;5113104;28;20392;-76
2021/09/25 00:51:46;;;;;;;0.88;0.75;;;17.60;83.70;;;;;;5113207;28;20019;-75
2021/09/25 00:54:12;;;;;;;0.60;0.52;;;17.60;83.80;;;;;;5113017;28;20039;-75
2021/09/25 00:56:40;;;;;;;0.85;0.80;;;17.60;83.80;;;;;;5112764;28;20020;-75
2021/09/25 00:59:05;;;;;;;0.55;0.55;;;17.60;83.80;;;;;;5094699;28;20102;-75
2021/09/25 01:01:31;;;;;;;0.70;0.70;;;17.60;83.90;;;;;;5113068;28;20152;-75
2021/09/25 01:03:56;;;;;;;0.63;0.57;;;17.60;83.80;;;;;;5114411;28;20015;-75
2021/09/25 01:06:22;;;;;;;1.65;0.60;;;17.50;83.90;;;;;;5116560;28;20119;-75
2021/09/25 01:08:48;;;;;;;0.50;0.50;;;17.50;83.80;;;;;;5116507;28;20075;-75
2021/09/25 01:11:13;;;;;;;0.57;0.43;;;17.60;83.90;;;;;;5116169;28;20093;-75
2021/09/25 01:13:39;;;;;;;0.65;0.60;;;17.50;83.90;;;;;;5098164;28;20425;-75
2021/09/25 01:16:04;;;;;;;0.70;0.70;;;17.50;83.90;;;;;;5116502;28;20102;-75
2021/09/25 01:18:30;;;;;;;0.65;0.65;;;17.50;84.00;;;;;;5116270;28;20098;-74
2021/09/25 01:21:07;;;;;;;0.63;0.63;;;17.50;83.90;;;;;;5116339;28;20460;-75
2021/09/25 01:23:34;;;;;;;1.00;0.70;;;17.50;83.90;;;;;;5116363;28;20035;-76
2021/09/25 01:26:00;;;;;;;0.47;0.47;;;17.50;83.90;;;;;;5115790;28;20023;-76
2021/09/25 01:28:27;;;;;;;0.63;0.63;;;17.50;83.90;;;;;;5116044;28;20515;-76
2021/09/25 01:30:53;;;;;;;1.75;1.48;;;17.50;83.90;;;;;;5116234;28;20122;-75
2021/09/25 01:33:31;;;;;;;0.75;0.70;;;17.40;83.90;;;;;;5116235;28;20042;-76
2021/09/25 01:35:57;;;;;;;1.25;0.70;;;17.50;83.90;;;;;;5116022;28;20496;-76
2021/09/25 01:38:23;;;;;;;1.60;1.02;;;17.40;83.90;;;;;;5115518;28;20477;-76
2021/09/25 01:40:49;;;;;;;0.60;0.60;;;17.50;83.90;;;;;;5116075;28;20024;-75
2021/09/25 01:43:15;;;;;;;0.70;0.70;;;17.50;83.90;;;;;;5115810;28;20069;-76
2021/09/25 01:45:42;;;;;;;0.60;0.60;;;17.50;83.90;;;;;;5116001;28;20052;-76
2021/09/25 01:48:09;;;;;;;1.25;1.00;;;17.40;83.90;;;;;;5116026;28;20028;-76
2021/09/25 01:50:34;;;;;;;1.08;0.75;;;17.40;83.90;;;;;;5115944;28;20024;-76
2021/09/25 01:53:00;;;;;;;0.70;0.70;;;17.40;83.90;;;;;;5115185;28;20027;-76
2021/09/25 01:55:26;;;;;;;0.52;0.52;;;17.40;83.90;;;;;;5115605;28;20024;-76
2021/09/25 01:57:51;;;;;;;1.05;0.95;;;17.40;83.90;;;;;;5115766;28;20073;-76
2021/09/25 02:00:17;;;;;;;0.88;0.88;;;17.40;83.90;;;;;;5115673;28;20043;-76
2021/09/25 02:02:42;;;;;;;1.27;0.93;;;17.40;83.90;;;;;;5115577;28;20015;-76
2021/09/25 02:05:08;;;;;;;0.98;0.93;;;17.40;84.00;;;;;;5115538;28;20103;-76
2021/09/25 02:07:34;;;;;;;1.05;0.82;;;17.40;84.00;;;;;;5114862;28;20095;-76
2021/09/25 02:10:00;;;;;;;0.98;0.80;;;17.40;84.10;;;;;;5115605;28;20028;-76
2021/09/25 02:12:25;;;;;;;1.27;0.88;;;17.40;84.10;;;;;;5115465;28;20027;-76
2021/09/25 02:14:51;;;;;;;1.02;0.90;;;17.40;84.10;;;;;;5114781;28;20026;-76
2021/09/25 02:17:16;;;;;;;1.00;0.90;;;17.30;84.10;;;;;;5115147;28;20024;-76
2021/09/25 02:19:42;;;;;;;1.05;0.88;;;17.30;84.10;;;;;;5115530;28;20047;-76
2021/09/25 02:22:08;;;;;;;1.73;1.00;;;17.30;84.10;;;;;;5114633;28;20067;-76
2021/09/25 02:24:34;;;;;;;2.30;1.50;;;17.30;84.10;;;;;;5115043;28;20020;-76
2021/09/25 02:27:02;;;;;;;1.08;1.05;;;17.30;84.20;;;;;;5115032;28;20502;-76
2021/09/25 02:29:27;;;;;;;1.75;1.30;;;17.30;84.30;;;;;;5115100;28;20015;-76
2021/09/25 02:31:53;;;;;;;0.95;0.90;;;17.30;84.30;;;;;;5114878;28;20385;-76
2021/09/25 02:34:18;;;;;;;1.55;1.25;;;17.30;84.30;;;;;;5114923;28;20031;-76
2021/09/25 02:36:44;;;;;;;2.75;1.83;;;17.30;84.30;;;;;;5114475;28;20020;-76
2021/09/25 02:39:09;;;;;;;1.20;1.10;;;17.30;84.30;;;;;;5114928;28;20030;-76
2021/09/25 02:41:35;;;;;;;0.77;0.70;;;17.30;84.30;;;;;;5096505;28;20115;-76
2021/09/25 02:44:00;;;;;;;1.20;1.00;;;17.30;84.40;;;;;;5115034;28;20440;-77
2021/09/25 02:46:26;;;;;;;1.52;0.98;;;17.30;84.40;;;;;;5130479;27;20054;-76
2021/09/25 02:48:51;;;;;;;1.13;1.02;;;17.20;84.40;;;;;;5114898;28;20077;-76
2021/09/25 02:51:17;;;;;;;1.13;1.02;;;17.20;84.40;;;;;;5114066;28;20080;-76
2021/09/25 02:53:43;;;;;;;1.60;1.10;;;17.20;84.50;;;;;;5114938;28;20032;-76
2021/09/25 02:56:09;;;;;;;1.35;1.05;;;17.20;84.50;;;;;;5114752;28;20041;-76
2021/09/25 02:58:34;;;;;;;1.35;1.25;;;17.20;84.50;;;;;;5114454;28;20042;-77
2021/09/25 03:01:00;;;;;;;1.13;1.02;;;17.10;84.50;;;;;;5114657;28;20472;-76
2021/09/25 03:03:26;;;;;;;0.88;0.85;;;17.20;84.60;;;;;;5096218;28;20051;-76
2021/09/25 03:05:51;;;;;;;1.30;0.82;;;17.10;84.50;;;;;;5114119;28;20031;-76
2021/09/25 03:08:17;;;;;;;1.67;1.10;;;17.10;84.60;;;;;;5114198;28;20056;-76
2021/09/25 03:10:42;;;;;;;1.15;1.10;;;17.00;84.70;;;;;;5114300;28;20020;-76
2021/09/25 03:13:08;;;;;;;1.45;1.20;;;17.00;84.70;;;;;;5095975;28;20035;-76
2021/09/25 03:15:33;;;;;;;1.48;1.10;;;17.00;84.70;;;;;;5114226;28;20061;-76
2021/09/25 03:17:59;;;;;;;1.08;0.90;;;17.00;84.70;;;;;;5114149;28;20028;-76
2021/09/25 03:20:25;;;;;;;1.50;1.40;;;17.00;84.70;;;;;;5113639;28;20020;-76
2021/09/25 03:22:51;;;;;;;1.98;1.30;;;17.00;84.70;;;;;;5113941;28;20237;-76
2021/09/25 03:25:16;;;;;;;2.33;1.48;;;17.00;84.70;;;;;;5114211;28;20024;-76
2021/09/25 03:27:43;;;;;;;2.20;1.17;;;17.00;84.70;;;;;;5113904;28;20027;-76
2021/09/25 03:30:10;;;;;;;1.77;1.10;;;17.00;84.80;;;;;;5114007;28;20030;-76
2021/09/25 03:32:36;;;;;;;1.33;1.10;;;17.00;84.90;;;;;;5113831;28;20088;-76
2021/09/25 03:35:02;;;;;;;1.75;1.35;;;16.90;84.70;;;;;;5129227;27;20421;-76
2021/09/25 03:37:27;;;;;;;1.13;1.00;;;16.90;84.80;;;;;;5113909;28;20028;-76
2021/09/25 03:39:53;;;;;;;2.40;1.33;;;16.90;84.70;;;;;;5113851;28;20106;-76
2021/09/25 03:42:18;;;;;;;2.00;1.30;;;17.00;84.80;;;;;;5113735;28;20141;-76
2021/09/25 03:44:44;;;;;;;2.10;1.08;;;16.90;84.70;;;;;;5113759;28;20031;-76
2021/09/25 03:47:10;;;;;;;1.63;1.13;;;17.00;84.70;;;;;;5113914;28;20030;-76
2021/09/25 03:49:36;;;;;;;1.60;1.30;;;17.00;84.70;;;;;;5113326;28;20024;-76
2021/09/25 03:52:01;;;;;;;1.73;1.30;;;17.00;84.70;;;;;;5113600;28;20027;-76
2021/09/25 03:54:27;;;;;;;1.90;1.58;;;16.90;84.70;;;;;;5129508;28;20464;-76
2021/09/25 03:56:52;;;;;;;1.30;1.20;;;16.90;84.80;;;;;;5113705;28;20073;-76
2021/09/25 03:59:18;;;;;;;1.77;1.13;;;16.90;84.70;;;;;;5113669;28;20069;-76
2021/09/25 04:01:43;;;;;;;1.90;1.42;;;16.90;84.70;;;;;;5113681;28;20027;-76
2021/09/25 04:04:09;;;;;;;1.73;1.13;;;17.00;84.70;;;;;;5113066;28;20020;-76
2021/09/25 04:06:34;;;;;;;1.33;1.02;;;17.00;84.70;;;;;;5113567;28;20024;-75
2021/09/25 04:09:00;;;;;;;1.92;1.30;;;17.00;84.60;;;;;;5113338;28;20039;-75
2021/09/25 04:11:25;;;;;;;1.42;1.33;;;17.00;84.60;;;;;;5113692;28;20468;-75
2021/09/25 04:13:51;;;;;;;1.40;0.82;;;17.00;84.70;;;;;;5113503;28;20391;-75
2021/09/25 04:16:17;;;;;;;1.70;1.60;;;17.00;84.70;;;;;;5113541;28;20149;-75
2021/09/25 04:18:43;;;;;;;2.08;1.10;;;17.00;84.70;;;;;;5113156;28;20486;-75
2021/09/25 04:21:09;;;;;;;1.70;1.45;;;17.00;84.70;;;;;;5113378;28;20381;-75
2021/09/25 04:23:34;;;;;;;1.67;1.30;;;17.00;84.70;;;;;;5113475;28;20380;-75
2021/09/25 04:26:00;;;;;;;1.83;1.50;;;17.00;84.70;;;;;;5113495;28;20353;-75
2021/09/25 04:28:25;;;;;;;1.60;1.23;;;17.00;84.70;;;;;;5113396;28;20380;-75
2021/09/25 04:30:51;;;;;;;1.88;1.30;;;17.00;84.70;;;;;;5113561;28;20038;-75
2021/09/25 04:33:16;;;;;;;1.63;1.40;;;17.00;84.70;;;;;;5094539;28;20036;-75
2021/09/25 04:35:42;;;;;;;1.67;1.40;;;17.00;84.80;;;;;;5113238;28;20024;-75
2021/09/25 04:38:08;;;;;;;2.20;1.52;;;17.00;84.80;;;;;;5113664;28;20026;-75
2021/09/25 04:40:34;;;;;;;1.70;1.42;;;16.90;84.90;;;;;;5117215;28;20019;-76
2021/09/25 04:43:01;;;;;;;2.28;1.63;;;16.90;84.90;;;;;;5117173;28;20020;-76
2021/09/25 04:45:27;;;;;;;1.70;1.20;;;16.90;84.90;;;;;;5117024;28;20019;-76
2021/09/25 04:47:53;;;;;;;2.53;1.48;;;16.90;85.00;;;;;;5116653;28;20015;-75
2021/09/25 04:50:20;;;;;;;1.98;1.38;;;16.90;85.00;;;;;;5116948;28;20023;-75
2021/09/25 04:52:45;;;;;;;1.83;1.33;;;16.90;85.00;;;;;;5116928;28;20515;-76
2021/09/25 04:55:11;;;;;;;1.95;1.27;;;16.90;85.10;;;;;;5116757;28;20028;-76
2021/09/25 04:57:37;;;;;;;1.58;1.40;;;16.90;85.10;;;;;;5116932;28;20031;-75
2021/09/25 05:00:07;;;;;;;1.48;1.20;;;16.90;85.10;;;;;;5116933;28;20349;-75
2021/09/25 05:02:33;;;;;;;2.25;1.73;;;16.90;85.70;;;;;;5116155;28;20051;-75
2021/09/25 05:04:59;;;;;;;2.60;1.63;;;16.90;85.10;;;;;;5116688;28;20027;-75
2021/09/25 05:07:24;;;;;;;1.35;1.20;;;16.80;85.10;;;;;;5116529;28;20096;-76
2021/09/25 05:09:50;;;;;;;1.52;1.13;;;16.90;85.10;;;;;;5116747;28;20028;-75
2021/09/25 05:12:15;;;;;;;1.25;1.15;;;16.90;85.10;;;;;;5116620;28;20024;-75
2021/09/25 05:14:41;;;;;;;2.17;1.77;;;16.90;85.10;;;;;;5116556;28;20434;-75
2021/09/25 05:17:07;;;;;;;1.20;1.10;;;16.90;85.10;;;;;;5116033;28;20024;-75
2021/09/25 05:19:33;;;;;;;1.33;1.23;;;16.90;85.10;;;;;;5116459;28;20084;-75
2021/09/25 05:21:59;;;;;;;1.80;1.30;;;16.90;85.10;;;;;;5116395;28;20053;-76
2021/09/25 05:24:24;;;;;;;2.72;1.48;;;16.90;85.10;;;;;;5116437;28;20024;-77
2021/09/25 05:26:50;;;;;;;1.13;0.93;;;16.90;85.10;;;;;;5116183;28;20020;-78
2021/09/25 05:29:19;;;;;;;2.13;1.40;;;16.90;85.10;;;;;;5117669;28;20148;-89
2021/09/25 05:31:45;;;;;;;1.33;1.10;;;16.90;85.10;;;;;;5117353;28;20476;-87
2021/09/25 05:34:11;;;;;;;1.40;1.10;;;16.90;85.10;;;;;;5099470;28;20292;-91
2021/09/25 05:36:36;;;;;;;1.52;1.20;;;16.90;85.10;;;;;;5117148;28;20019;-88
2021/09/25 05:39:04;;;;;;;1.73;1.25;;;16.90;85.10;;;;;;5116955;28;20038;-80
2021/09/25 05:41:30;;;;;;;1.20;1.10;;;16.90;85.10;;;;;;5116181;28;20054;-80
2021/09/25 05:43:55;;;;;;;1.48;1.20;;;16.90;85.10;;;;;;5116093;28;20031;-79
2021/09/25 05:46:22;;;;;;;1.58;1.27;;;16.90;85.10;;;;;;5115398;28;20033;-78
2021/09/25 05:48:51;;;;;;;1.63;1.05;;;16.90;85.10;;;;;;5115900;28;20035;-77
2021/09/25 05:51:18;;;;;;;1.75;1.40;;;16.90;85.00;;;;;;5096367;28;20024;-78
2021/09/25 05:53:43;;;;;;;1.48;1.30;;;16.90;85.10;;;;;;5097435;28;20436;-78
2021/09/25 05:56:09;;;;;;;1.75;1.48;;;16.90;85.10;;;;;;5115915;28;20051;-80
2021/09/25 05:58:34;;;;;;;1.38;1.25;;;16.90;85.10;;;;;;5115478;28;20365;-78
2021/09/25 06:01:00;;;;;;;1.98;1.30;;;16.90;85.10;;;;;;5115210;28;20016;-81
2021/09/25 06:03:25;;;;;;;1.80;1.30;;;16.90;85.10;;;;;;5115555;28;20032;-77
2021/09/25 06:05:51;;;;;;;2.08;1.25;;;16.90;85.10;;;;;;5115591;28;20101;-77
2021/09/25 06:08:16;;;;;;;1.10;1.00;;;16.90;85.20;;;;;;5115275;28;20040;-81
2021/09/25 06:10:43;;;;;;;1.45;0.90;;;16.90;85.20;;;;;;5115423;28;20117;-81
2021/09/25 06:13:10;;;;;;;1.08;0.98;;;16.90;85.10;;;;;;5115298;28;20039;-81
2021/09/25 06:15:36;;;;;;;1.65;1.15;;;16.90;85.00;;;;;;5114938;28;20016;-82
2021/09/25 06:18:03;;;;;;;1.52;1.20;;;16.90;85.10;;;;;;5115294;28;20031;-80
2021/09/25 06:20:29;;;;;;;2.03;1.77;;;16.90;85.10;;;;;;5115228;28;20377;-81
2021/09/25 06:22:55;;;;;;;0.93;0.93;;;16.90;85.10;;;;;;5115280;28;20476;-79
2021/09/25 06:25:21;;;;;;;1.52;1.20;;;17.00;85.10;;;;;;5115239;28;20020;-80
2021/09/25 06:27:46;;;;;;;1.85;1.60;;;17.00;85.10;;;;;;5114989;28;20024;-81
2021/09/25 06:30:12;;;;;;;1.45;1.15;;;17.00;85.10;;;;;;5114581;28;20024;-80
2021/09/25 06:32:38;;;;;;;0.80;0.80;;;17.00;85.10;;;;;;5114950;28;20042;-82
2021/09/25 06:35:05;;;;;;;2.10;1.30;;;17.00;85.10;;;;;;5115172;28;20081;-81
2021/09/25 06:37:31;;;;;;;1.60;1.30;;;17.00;85.10;;;;;;5114966;28;20476;-81
2021/09/25 06:39:56;;;;;;;2.42;1.50;;;17.00;85.10;;;;;;5114887;28;20046;-82
2021/09/25 06:42:22;;;;;;;1.88;1.67;;;16.90;85.20;;;;;;5114921;28;20023;-80
2021/09/25 06:44:48;;;;;;;1.70;1.30;;;17.00;85.30;;;;;;5114226;28;20020;-83
2021/09/25 06:47:13;;;;;;;1.52;1.17;;;17.00;85.30;;;;;;5115100;28;20023;-81
2021/09/25 06:49:39;;;;;;;2.30;1.20;;;17.00;85.30;;;;;;5114628;28;20107;-81
2021/09/25 06:52:05;;;;;;;2.95;1.50;;;17.00;85.20;;;;;;5114766;28;20472;-80
2021/09/25 06:54:34;;;;;;;2.47;1.73;;;17.00;85.20;;;;;;5114616;28;20027;-78
2021/09/25 06:57:00;;;;;;;1.23;0.95;;;17.00;85.20;;;;;;5114583;28;20019;-80
2021/09/25 06:59:26;;;;;;;1.77;1.35;;;17.10;85.20;;;;;;5113967;28;20020;-80
2021/09/25 07:01:51;;;;;;;1.65;1.23;;;17.10;85.10;;;;;;5114030;28;20023;-79
2021/09/25 07:04:17;;;;;;;1.20;1.10;;;17.20;85.10;;;;;;5114351;28;20020;-80
2021/09/25 07:06:42;;;;;;;1.77;1.27;;;17.20;85.10;;;;;;5095975;28;20387;-80
2021/09/25 07:09:08;;;;;;;1.13;0.95;;;17.30;85.10;;;;;;5095899;28;20089;-78
2021/09/25 07:11:34;;;;;;;1.75;1.42;;;17.30;84.90;;;;;;5114417;28;20027;-80
2021/09/25 07:13:59;;;;;;;1.40;0.98;;;17.40;84.90;;;;;;5113759;28;20038;-80
2021/09/25 07:16:25;;;;;;;1.58;1.25;;;17.40;84.80;;;;;;5096058;28;20066;-81
2021/09/25 07:18:51;;;;;;;1.35;1.10;;;17.40;84.80;;;;;;5114233;28;20019;-81
2021/09/25 07:21:17;;;;;;;1.67;1.10;;;17.40;84.80;;;;;;5113987;28;20357;-82
2021/09/25 07:23:42;;;;;;;2.63;1.60;;;17.40;84.80;;;;;;5095857;28;20031;-79
2021/09/25 07:26:08;;;;;;;1.65;1.20;;;17.40;84.90;;;;;;5114225;28;20023;-80
2021/09/25 07:28:34;;;;;;;1.77;1.17;;;17.40;84.90;;;;;;5113490;28;20084;-79
2021/09/25 07:31:01;;;;;;;1.38;1.17;;;17.50;85.00;;;;;;5114018;28;20022;-78
2021/09/25 07:33:27;;;;;;;1.38;1.20;;;17.50;84.90;;;;;;5113918;28;20480;-76
2021/09/25 07:35:54;;;;;;;1.60;1.17;;;17.50;84.90;;;;;;5113859;28;20077;-77
2021/09/25 07:38:20;;;;;;;2.45;1.83;;;17.60;84.90;;;;;;5113917;28;20016;-79
2021/09/25 07:40:46;;;;;;;1.42;1.08;;;17.60;84.80;;;;;;5113793;28;20099;-78
2021/09/25 07:43:11;;;;;;;1.55;1.40;;;17.60;84.80;;;;;;5113415;28;20035;-77
2021/09/25 07:45:37;;;;;;;1.90;1.55;;;17.60;84.80;;;;;;5113799;28;20019;-81
2021/09/25 07:48:03;;;;;;;1.20;1.10;;;17.60;84.90;;;;;;5113694;28;20102;-78
2021/09/25 07:50:29;;;;;;;1.40;1.08;;;17.60;84.90;;;;;;5113703;28;20208;-78
2021/09/25 07:52:57;;;;;;;2.10;1.60;;;17.60;84.90;;;;;;5113685;28;20032;-80
2021/09/25 07:55:25;;;;;;;1.83;1.13;;;17.60;84.90;;;;;;5113298;28;20095;-78
2021/09/25 07:57:51;;;;;;;1.48;1.33;;;17.60;85.00;;;;;;5113582;28;20038;-79
2021/09/25 08:00:17;;;;;;;2.25;1.60;;;17.60;85.00;;;;;;5113639;28;20023;-80
2021/09/25 08:02:43;;;;;;;1.45;1.20;;;17.60;85.00;;;;;;5113636;28;20468;-80
2021/09/25 08:05:10;;;;;;;2.15;1.80;;;17.70;85.10;;;;;;5113873;28;20369;-79
2021/09/25 08:07:36;;;;;;;1.85;1.38;;;17.70;85.00;;;;;;5113330;28;20028;-78
2021/09/25 08:10:04;;;;;;;2.33;1.45;;;17.80;85.00;;;;;;5112775;28;20028;-77
2021/09/25 08:12:30;;;;;;;1.58;1.27;;;17.80;84.90;;;;;;5113397;28;20422;-79
2021/09/25 08:14:57;;;;;;;1.55;1.27;;;17.90;84.90;;;;;;5116719;28;20024;-78
2021/09/25 08:17:23;;;;;;;1.05;1.00;;;17.90;85.40;;;;;;5099164;28;20076;-78
2021/09/25 08:19:49;;;;;;;1.75;1.30;;;17.90;85.30;;;;;;5099342;28;20024;-80
2021/09/25 08:22:14;;;;;;;1.63;1.35;;;18.00;84.70;;;;;;5099271;28;20027;-81
2021/09/25 08:24:40;;;;;;;1.10;1.00;;;18.10;84.70;;;;;;5116935;28;20030;-79
2021/09/25 08:27:06;;;;;;;1.63;1.52;;;18.00;84.70;;;;;;5117489;28;20020;-80
2021/09/25 08:29:31;;;;;;;1.10;1.00;;;18.00;84.60;;;;;;5117273;28;20376;-79
2021/09/25 08:31:57;;;;;;;2.20;1.35;;;18.10;84.70;;;;;;5117327;28;20377;-80
2021/09/25 08:34:22;;;;;;;1.52;1.40;;;18.10;84.70;;;;;;5117221;28;20036;-79
2021/09/25 08:36:48;;;;;;;1.95;1.20;;;18.10;84.70;;;;;;5117013;28;20376;-79
2021/09/25 08:39:13;;;;;;;1.67;1.20;;;18.10;84.70;;;;;;5116681;28;20027;-79
2021/09/25 08:41:45;;;;;;;1.88;1.67;;;18.10;84.70;;;;;;5117185;28;20016;-76
2021/09/25 08:44:11;;;;;;;2.58;1.38;;;18.10;84.60;;;;;;5116928;28;20080;-76
2021/09/25 08:46:37;;;;;;;1.73;1.40;;;18.10;84.60;;;;;;5098921;28;20012;-78
2021/09/25 08:49:04;;;;;;;2.00;1.45;;;18.20;84.60;;;;;;5132881;27;20024;-79
2021/09/25 08:51:30;;;;;;;2.28;1.48;;;18.20;84.60;;;;;;5116814;28;20022;-78
2021/09/25 08:53:55;;;;;;;2.00;1.80;;;18.20;84.70;;;;;;5116300;28;20028;-79
2021/09/25 08:56:21;;;;;;;1.80;1.25;;;18.20;84.70;;;;;;5116866;28;20481;-76
2021/09/25 08:58:48;;;;;;;2.45;1.55;;;18.20;84.70;;;;;;5116733;28;20051;-77
2021/09/25 09:01:18;;;;;;;1.80;1.38;;;18.20;84.60;;;;;;5116813;28;20027;-77
2021/09/25 09:03:47;;;;;;;2.55;1.63;;;18.30;84.60;;;;;;5098494;28;20020;-76
2021/09/25 09:06:46;;;;;;;1.98;1.73;;;18.30;84.50;;;;;;5116627;28;20059;-76
2021/09/25 09:09:11;;;;;;;1.25;1.15;;;18.40;84.50;;;;;;5098164;28;20055;-77
2021/09/25 09:11:46;;;;;;;1.85;1.33;;;18.40;84.60;;;;;;5116556;28;20027;-78
2021/09/25 09:14:14;;;;;;;1.58;1.35;;;18.30;84.50;;;;;;5098493;28;20043;-83
2021/09/25 09:16:40;;;;;;;2.00;1.23;;;18.30;84.80;;;;;;5116618;28;20019;-81
2021/09/25 09:19:06;;;;;;;1.13;1.02;;;18.30;84.80;;;;;;5098214;28;20547;-79
2021/09/25 09:21:32;;;;;;;4.82;2.10;;;18.30;84.70;;;;;;5116456;28;20062;-79
2021/09/25 09:24:04;;;;;;;1.55;1.40;;;18.30;84.70;;;;;;5097554;28;20111;-79
2021/09/25 09:26:36;;;;;;;2.08;1.58;;;18.40;84.70;;;;;;5116334;28;20023;-83
2021/09/25 09:29:05;;;;;;;2.13;1.42;;;18.40;84.70;;;;;;5116601;28;20034;-83
2021/09/25 09:31:31;;;;;;;1.42;1.33;;;18.40;84.60;;;;;;5116262;28;20020;-83
2021/09/25 09:33:59;;;;;;;1.52;1.40;;;18.50;84.50;;;;;;5116244;28;20506;-83
2021/09/25 09:36:24;;;;;;;1.50;1.40;;;18.50;84.50;;;;;;5116213;28;20027;-82
2021/09/25 09:39:25;;;;;;;2.83;1.73;;;18.50;84.50;;;;;;5097423;28;20510;-82
2021/09/25 09:41:55;;;;;;;1.42;1.10;;;18.60;84.30;;;;;;5033212;28;20556;-79
2021/09/25 09:44:26;;;;;;;1.95;1.30;;;18.60;84.40;;;;;;5033226;28;20036;-81
2021/09/25 09:47:00;;;;;;;1.35;1.15;;;18.70;84.30;;;;;;5049769;28;20419;-80
2021/09/25 09:49:35;;;;;;;1.60;1.50;;;18.80;84.30;;;;;;5033223;28;20428;-80
2021/09/25 09:52:07;;;;;;;1.52;1.20;;;18.80;84.20;;;;;;5032667;28;20021;-80
2021/09/25 09:54:46;;;;;;;2.00;1.25;;;18.90;84.10;;;;;;5033146;28;20045;-80
2021/09/25 09:57:12;;;;;;;2.10;1.67;;;19.00;84.00;;;;;;5033150;28;20414;-80
2021/09/25 09:59:39;;;;;;;3.95;1.60;;;18.90;84.60;;;;;;5033092;28;20131;-80
2021/09/25 10:02:06;;;;;;;2.30;1.40;;;19.00;84.00;;;;;;5033058;28;20146;-81
2021/09/25 10:04:32;;;;;;;1.42;1.30;;;19.00;83.90;;;;;;5033167;28;20026;-80
2021/09/25 10:06:58;;;;;;;1.85;1.23;;;19.00;84.00;;;;;;5032619;28;20116;-80
2021/09/25 10:09:28;;;;;;;1.30;0.85;;;19.10;84.00;;;;;;5030371;28;20124;-88
2021/09/25 10:11:57;;;;;;;1.38;1.20;;;19.10;83.90;;;;;;5030998;28;20048;-86
2021/09/25 10:14:25;;;;;;;1.15;1.05;;;19.30;83.90;;;;;;5030479;28;20072;-85
2021/09/25 10:16:52;;;;;;;1.58;1.40;;;19.30;83.70;;;;;;5088742;28;20036;-85
2021/09/25 10:19:20;;;;;;;2.40;1.95;;;19.40;83.70;;;;;;5092887;28;20507;-87
2021/09/25 10:21:48;;;;;;;1.70;1.30;;;19.40;83.50;;;;;;5092651;28;20024;-86
2021/09/25 10:24:20;;;;;;;2.10;1.50;;;19.50;83.60;;;;;;5074974;28;20020;-86
2021/09/25 10:26:46;;;;;;;1.85;1.60;;;19.50;83.70;;;;;;5093134;28;20051;-86
2021/09/25 10:29:18;;;;;;;1.95;1.58;;;19.50;83.60;;;;;;5093600;28;20059;-86
2021/09/25 10:31:44;;;;;;;2.13;1.30;;;19.50;83.60;;;;;;5093396;28;20643;-86
2021/09/25 10:34:18;;;;;;;2.58;1.65;;;19.40;83.70;;;;;;5092838;28;20054;-86
2021/09/25 10:36:48;;;;;;;2.38;1.90;;;19.50;83.80;;;;;;5091770;28;20071;-86
2021/09/25 10:39:29;;;;;;;3.42;2.03;;;19.50;83.70;;;;;;5092771;28;20035;-86
2021/09/25 10:42:12;;;;;;;1.67;1.40;;;19.60;83.70;;;;;;5092748;28;20020;-86
2021/09/25 10:44:47;;;;;;;1.85;1.73;;;19.60;83.70;;;;;;5092587;28;20032;-86
2021/09/25 10:47:20;;;;;;;2.60;1.60;;;19.70;83.60;;;;;;5092592;28;20434;-85
2021/09/25 10:49:49;;;;;;;2.45;1.60;;;19.70;83.40;;;;;;5108566;28;20020;-86
2021/09/25 10:52:17;;;;;;;1.48;1.15;;;19.80;83.30;;;;;;5114076;28;20519;-85
2021/09/25 10:54:44;;;;;;;4.13;1.70;;;19.90;83.30;;;;;;5115256;28;20024;-86
2021/09/25 10:57:18;;;;;;;2.38;1.63;;;19.90;83.10;;;;;;5115081;28;20065;-86
2021/09/25 11:00:22;;;;;;;2.72;1.60;;;19.90;83.20;;;;;;5114737;28;20496;-79
2021/09/25 11:02:48;;;;;;;1.80;1.27;;;20.00;83.30;;;;;;5114397;28;20023;-80
2021/09/25 11:05:35;;;;;;;3.35;1.70;;;20.00;83.30;;;;;;5113857;28;20012;-80
2021/09/25 11:08:01;;;;;;;2.30;1.55;;;20.00;83.30;;;;;;5113517;28;20063;-79
2021/09/25 11:10:38;;;;;;;1.83;1.45;;;20.00;83.20;;;;;;5114272;28;20012;-79
2021/09/25 11:13:03;;;;;;;2.20;1.30;;;20.10;83.20;;;;;;5095929;28;20081;-79
2021/09/25 11:15:31;;;;;;;1.35;1.13;;;20.20;83.20;;;;;;5096094;28;20415;-79
2021/09/25 11:18:25;;;;;;;2.58;1.70;;;20.20;83.10;;;;;;5114153;28;20038;-80
2021/09/25 11:20:51;;;;;;;2.75;1.70;;;20.30;83.00;;;;;;5095844;28;20015;-80
2021/09/25 11:23:16;;;;;;;2.50;1.50;;;20.30;82.90;;;;;;5114122;28;20164;-79
2021/09/25 11:25:49;;;;;;;1.50;1.40;;;20.30;82.90;;;;;;5114054;28;20076;-79
2021/09/25 11:28:21;;;;;;;2.60;1.67;;;20.40;82.90;;;;;;5113979;28;20020;-81
2021/09/25 11:30:46;;;;;;;2.00;1.58;;;20.50;82.90;;;;;;5114053;28;20046;-80
2021/09/25 11:33:12;;;;;;;2.08;1.63;;;20.50;83.00;;;;;;5113525;28;20063;-80
2021/09/25 11:35:38;;;;;;;2.20;1.50;;;20.50;82.90;;;;;;5113942;28;20020;-81
2021/09/25 11:38:05;;;;;;;2.65;1.80;;;20.60;82.70;;;;;;5113942;28;20019;-80
2021/09/25 11:40:45;;;;;;;2.60;2.00;;;20.60;82.70;;;;;;5113708;28;20019;-80
2021/09/25 11:43:14;;;;;;;2.15;1.70;;;20.60;82.70;;;;;;5113892;28;20031;-80
2021/09/25 11:45:45;;;;;;;1.80;1.30;;;20.60;83.40;;;;;;5113816;28;20468;-80
2021/09/25 11:48:13;;;;;;;3.05;2.05;;;20.60;82.80;;;;;;5112971;28;20107;-81
2021/09/25 11:50:45;;;;;;;2.67;1.65;;;20.70;82.70;;;;;;5113611;28;20027;-80
2021/09/25 11:53:17;;;;;;;3.13;1.70;;;20.70;82.60;;;;;;5095433;28;20118;-80
2021/09/25 11:55:44;;;;;;;2.25;1.73;;;20.80;82.50;;;;;;5113566;28;20027;-80
2021/09/25 11:58:16;;;;;;;2.60;1.60;;;20.80;82.60;;;;;;5113663;28;20027;-81
2021/09/25 12:00:51;;;;;;;2.90;1.85;;;20.80;82.50;;;;;;5113584;28;20047;-80
2021/09/25 12:03:18;;;;;;;2.97;2.10;;;21.00;82.40;;;;;;5113362;28;20035;-81
2021/09/25 12:05:49;;;;;;;2.70;2.00;;;21.00;82.20;;;;;;5113533;28;20026;-81
2021/09/25 12:08:23;;;;;;;3.58;1.95;;;21.10;82.20;;;;;;5113652;28;20044;-81
2021/09/25 12:10:53;;;;;;;2.90;1.85;;;21.10;82.20;;;;;;5113702;28;20015;-80
2021/09/25 12:13:20;;;;;;;2.42;1.85;;;21.10;82.20;;;;;;5113405;28;20384;-81
2021/09/25 12:15:48;;;;;;;2.50;1.83;;;21.20;82.10;;;;;;5113376;28;20137;-81
2021/09/25 12:18:21;;;;;;;3.55;2.05;;;21.30;82.10;;;;;;5112950;28;20384;-80
2021/09/25 12:20:57;;;;;;;4.00;2.53;;;21.30;82.10;;;;;;5113402;28;20011;-81
2021/09/25 12:23:45;;;;;;;2.10;1.67;;;21.40;81.90;;;;;;5113412;28;20053;-80
2021/09/25 12:26:16;;;;;;;3.05;2.13;;;21.40;81.90;;;;;;5113406;28;20464;-81
2021/09/25 12:28:51;;;;;;;2.40;1.60;;;21.40;82.00;;;;;;5095416;28;20054;-80
2021/09/25 12:31:34;;;;;;;2.78;2.15;;;21.40;81.90;;;;;;5112956;28;20116;-81
2021/09/25 12:34:05;;;;;;;2.45;1.73;;;21.50;81.90;;;;;;5113149;28;20034;-81
2021/09/25 12:36:36;;;;;;;2.60;1.73;;;21.40;81.90;;;;;;5113227;28;20387;-81
2021/09/25 12:39:05;;;;;;;1.60;1.48;;;21.50;82.00;;;;;;5113173;28;20103;-81
2021/09/25 12:41:31;;;;;;;1.73;1.40;;;21.50;82.00;;;;;;5113102;28;20016;-79
2021/09/25 12:44:00;;;;;;;2.33;1.88;;;21.50;82.00;;;;;;5113154;28;20103;-79
2021/09/25 12:46:45;;;;;;;2.42;1.70;;;21.50;82.00;;;;;;5112746;28;20038;-80
2021/09/25 12:49:14;;;;;;;2.60;1.65;;;21.50;81.90;;;;;;5113157;28;20026;-80